Time,TemperatureF,DewpointF,PressureIn,WindDirection,WindDirectionDegrees,WindSpeedMPH,WindSpeedGustMPH,Humidity,HourlyPrecipIn,Conditions,Clouds,dailyrainin,SoftwareType,DateUTC
2013-05-12 00:04:00,60.8,50.5,29.88,NW,315,1.7,3.1,69,0.00,,,0.00,,2013-05-11 22:04:00,
2013-05-12 00:09:00,60.6,50.4,29.88,West,270,2.2,3.1,69,0.00,,,0.00,,2013-05-11 22:09:00,
2013-05-12 00:15:00,60.6,50.4,29.88,South,180,2.2,2.2,69,0.00,,,0.00,,2013-05-11 22:15:00,
2013-05-12 00:20:00,60.3,50.4,29.88,WNW,292,1.7,2.6,70,0.00,,,0.00,,2013-05-11 22:20:00,
2013-05-12 00:30:00,60.1,50.2,29.88,West,270,2.6,4.0,70,0.00,,,0.00,,2013-05-11 22:30:00,
2013-05-12 00:35:00,60.1,50.5,29.88,East,90,1.7,1.7,71,0.00,,,0.00,,2013-05-11 22:35:00,
2013-05-12 00:40:00,60.1,50.5,29.88,East,90,1.7,1.7,71,0.00,,,0.00,,2013-05-11 22:40:00,
2013-05-12 00:50:00,60.4,50.9,29.88,NW,315,0.4,0.8,71,0.00,,,0.00,,2013-05-11 22:50:00,
2013-05-12 01:00:00,60.8,50.5,29.88,South,180,0.8,1.7,69,0.00,,,0.00,,2013-05-11 23:00:00,
2013-05-12 01:05:00,60.8,50.5,29.88,South,180,1.3,1.3,69,0.00,,,0.00,,2013-05-11 23:05:00,
2013-05-12 01:10:00,61.0,49.8,29.88,West,270,1.3,1.7,67,0.00,,,0.00,,2013-05-11 23:10:00,
2013-05-12 01:15:00,61.2,50.0,29.88,SW,225,1.7,2.2,67,0.00,,,0.00,,2013-05-11 23:15:00,
2013-05-12 01:25:00,61.3,49.5,29.88,SSW,202,1.7,1.7,65,0.00,,,0.00,,2013-05-11 23:25:00,
2013-05-12 01:30:00,61.3,48.9,29.85,South,180,2.2,2.6,64,0.00,,,0.00,,2013-05-11 23:30:00,
2013-05-12 01:35:00,61.3,48.9,29.85,SE,135,0.8,1.3,64,0.00,,,0.00,,2013-05-11 23:35:00,
2013-05-12 01:40:00,61.5,49.1,29.85,South,180,1.3,1.3,64,0.00,,,0.00,,2013-05-11 23:40:00,
2013-05-12 01:45:00,61.3,48.9,29.85,SW,225,1.7,3.1,64,0.00,,,0.00,,2013-05-11 23:45:00,
2013-05-12 01:50:00,61.3,48.9,29.85,SW,225,0.8,2.6,64,0.00,,,0.00,,2013-05-11 23:50:00,
2013-05-12 01:55:00,61.3,48.9,29.85,SW,225,1.7,2.6,64,0.00,,,0.00,,2013-05-11 23:55:00,
2013-05-12 02:00:00,61.3,48.9,29.85,South,180,0.8,1.3,64,0.00,,,0.00,,2013-05-12 00:00:00,
2013-05-12 02:05:00,61.3,48.9,29.85,South,180,2.2,2.2,64,0.00,,,0.00,,2013-05-12 00:05:00,
2013-05-12 02:10:00,61.3,48.9,29.85,SE,135,1.7,1.7,64,0.00,,,0.00,,2013-05-12 00:10:00,
2013-05-12 02:15:00,61.3,48.9,29.85,South,180,1.3,1.3,64,0.00,,,0.00,,2013-05-12 00:15:00,
2013-05-12 02:20:00,61.0,48.2,29.85,West,270,0.8,1.3,63,0.00,,,0.00,,2013-05-12 00:20:00,
2013-05-12 02:25:00,61.0,48.2,29.85,East,90,1.3,1.7,63,0.00,,,0.00,,2013-05-12 00:25:00,
2013-05-12 02:30:00,60.4,48.0,29.85,SSE,157,1.3,2.6,64,0.00,,,0.00,,2013-05-12 00:30:00,
2013-05-12 02:35:00,60.1,47.3,29.85,South,180,2.6,2.6,63,0.00,,,0.00,,2013-05-12 00:35:00,
2013-05-12 02:40:00,59.9,47.1,29.85,West,270,2.2,2.6,63,0.00,,,0.00,,2013-05-12 00:40:00,
2013-05-12 02:45:00,59.5,47.3,29.85,South,180,2.2,3.5,64,0.00,,,0.00,,2013-05-12 00:45:00,
2013-05-12 02:50:00,59.4,47.1,29.85,South,180,1.3,3.5,64,0.00,,,0.00,,2013-05-12 00:50:00,
2013-05-12 02:55:00,59.0,47.1,29.85,South,180,2.6,3.1,65,0.00,,,0.00,,2013-05-12 00:55:00,
2013-05-12 03:00:00,58.8,46.9,29.85,South,180,1.7,2.6,65,0.00,,,0.00,,2013-05-12 01:00:00,
2013-05-12 03:05:00,58.8,47.5,29.85,South,180,1.3,2.2,66,0.00,,,0.00,,2013-05-12 01:05:00,
2013-05-12 03:10:00,58.5,47.1,29.85,South,180,0.0,0.4,66,0.00,,,0.00,,2013-05-12 01:10:00,
2013-05-12 03:15:00,58.3,47.7,29.85,East,90,1.3,2.6,68,0.00,,,0.00,,2013-05-12 01:15:00,
2013-05-12 03:20:00,58.1,47.1,29.85,East,90,0.4,3.1,67,0.00,,,0.00,,2013-05-12 01:20:00,
2013-05-12 03:25:00,57.9,46.9,29.85,East,90,1.7,1.7,67,0.00,,,0.00,,2013-05-12 01:25:00,
2013-05-12 03:30:00,57.9,46.9,29.85,East,90,1.7,1.7,67,0.00,,,0.00,,2013-05-12 01:30:00,
2013-05-12 03:35:00,57.7,46.8,29.85,East,90,0.8,1.7,67,0.00,,,0.00,,2013-05-12 01:35:00,
2013-05-12 03:40:00,57.4,46.8,29.85,East,90,0.8,1.3,68,0.00,,,0.00,,2013-05-12 01:40:00,
2013-05-12 03:45:00,57.2,46.9,29.85,East,90,0.8,1.3,69,0.00,,,0.00,,2013-05-12 01:45:00,
2013-05-12 03:50:00,57.2,46.9,29.85,East,90,0.8,3.1,69,0.00,,,0.00,,2013-05-12 01:50:00,
2013-05-12 03:55:00,56.8,46.8,29.85,SE,135,0.0,0.0,69,0.00,,,0.00,,2013-05-12 01:55:00,
2013-05-12 04:00:00,56.8,46.8,29.85,East,90,0.8,0.8,69,0.00,,,0.00,,2013-05-12 02:00:00,
2013-05-12 04:05:00,56.8,46.8,29.85,East,90,0.0,0.0,69,0.00,,,0.00,,2013-05-12 02:05:00,
2013-05-12 04:10:00,56.3,46.6,29.82,East,90,0.8,1.7,70,0.00,,,0.00,,2013-05-12 02:10:00,
2013-05-12 04:15:00,56.5,47.1,29.82,East,90,0.8,2.2,71,0.00,,,0.00,,2013-05-12 02:15:00,
2013-05-12 04:20:00,56.1,47.1,29.85,East,90,0.8,2.6,72,0.00,,,0.00,,2013-05-12 02:20:00,
2013-05-12 04:25:00,56.1,47.1,29.85,South,180,2.6,4.0,72,0.00,,,0.00,,2013-05-12 02:25:00,
2013-05-12 04:30:00,55.6,46.6,29.85,East,90,0.8,1.7,72,0.00,,,0.00,,2013-05-12 02:30:00,
2013-05-12 04:35:00,55.4,46.4,29.85,South,180,1.3,1.3,72,0.00,,,0.00,,2013-05-12 02:35:00,
2013-05-12 04:40:00,55.2,46.6,29.82,SE,135,1.3,1.3,73,0.00,,,0.00,,2013-05-12 02:40:00,
2013-05-12 04:45:00,55.0,46.8,29.82,SE,135,0.0,0.0,74,0.00,,,0.00,,2013-05-12 02:45:00,
2013-05-12 04:50:00,54.9,46.6,29.85,SSE,157,0.8,1.3,74,0.00,,,0.00,,2013-05-12 02:50:00,
2013-05-12 04:55:00,55.0,46.8,29.85,SE,135,2.6,4.0,74,0.00,,,0.00,,2013-05-12 02:55:00,
2013-05-12 05:00:00,55.0,46.8,29.82,SE,135,2.2,4.4,74,0.00,,,0.00,,2013-05-12 03:00:00,
2013-05-12 05:05:00,54.9,46.6,29.82,SE,135,0.4,1.3,74,0.00,,,0.00,,2013-05-12 03:05:00,
2013-05-12 05:10:00,54.9,46.6,29.82,SSE,157,0.4,1.3,74,0.00,,,0.00,,2013-05-12 03:10:00,
2013-05-12 05:15:00,55.0,46.8,29.82,East,90,0.4,1.7,74,0.00,,,0.00,,2013-05-12 03:15:00,
2013-05-12 05:20:00,55.2,46.9,29.82,East,90,1.7,1.7,74,0.00,,,0.00,,2013-05-12 03:20:00,
2013-05-12 05:25:00,55.4,47.1,29.82,East,90,1.3,3.1,74,0.00,,,0.00,,2013-05-12 03:25:00,
2013-05-12 05:30:00,55.4,46.8,29.82,East,90,0.4,0.8,73,0.00,,,0.00,,2013-05-12 03:30:00,
2013-05-12 05:35:00,55.6,46.9,29.82,SW,225,0.4,0.8,73,0.00,,,0.00,,2013-05-12 03:35:00,
2013-05-12 05:40:00,55.8,47.5,29.82,East,90,0.0,0.0,74,0.00,,,0.00,,2013-05-12 03:40:00,
2013-05-12 05:45:00,55.9,47.3,29.82,East,90,0.4,0.8,73,0.00,,,0.00,,2013-05-12 03:45:00,
2013-05-12 05:50:00,56.3,47.3,29.82,East,90,0.4,0.8,72,0.00,,,0.00,,2013-05-12 03:50:00,
2013-05-12 05:55:00,56.5,47.5,29.82,East,90,0.4,0.0,72,0.00,,,0.00,,2013-05-12 03:55:00,
2013-05-12 06:00:00,56.7,46.9,29.82,East,90,0.4,0.4,70,0.00,,,0.00,,2013-05-12 04:00:00,
2013-05-12 06:05:00,56.7,46.6,29.82,East,90,0.4,0.4,69,0.00,,,0.00,,2013-05-12 04:05:00,
2013-05-12 06:10:00,57.0,46.9,29.82,East,90,0.0,0.4,69,0.00,,,0.00,,2013-05-12 04:10:00,
2013-05-12 06:15:00,57.2,46.9,29.82,East,90,0.0,0.0,69,0.00,,,0.00,,2013-05-12 04:15:00,
2013-05-12 06:20:00,57.4,46.4,29.82,East,90,1.3,0.0,67,0.00,,,0.00,,2013-05-12 04:20:00,
2013-05-12 06:25:00,57.4,46.0,29.82,East,90,0.4,1.7,66,0.00,,,0.00,,2013-05-12 04:25:00,
2013-05-12 06:30:00,57.6,45.9,29.85,East,90,0.0,1.7,65,0.00,,,0.00,,2013-05-12 04:30:00,
2013-05-12 06:35:00,57.9,46.0,29.85,East,90,0.8,0.8,65,0.00,,,0.00,,2013-05-12 04:35:00,
2013-05-12 06:40:00,58.1,46.2,29.85,SE,135,0.0,0.0,65,0.00,,,0.00,,2013-05-12 04:40:00,
2013-05-12 06:45:00,58.1,46.2,29.85,East,90,0.4,0.8,65,0.00,,,0.00,,2013-05-12 04:45:00,
2013-05-12 06:50:00,58.3,46.4,29.85,East,90,1.3,1.3,65,0.00,,,0.00,,2013-05-12 04:50:00,
2013-05-12 06:55:00,58.6,46.4,29.85,East,90,0.8,0.8,64,0.00,,,0.00,,2013-05-12 04:55:00,
2013-05-12 07:00:00,58.8,46.6,29.85,East,90,0.4,0.0,64,0.00,,,0.00,,2013-05-12 05:00:00,
2013-05-12 07:05:00,59.0,46.8,29.85,NNW,337,0.4,0.8,64,0.00,,,0.00,,2013-05-12 05:05:00,
2013-05-12 07:10:00,59.2,46.9,29.85,East,90,0.8,2.2,64,0.00,,,0.00,,2013-05-12 05:10:00,
2013-05-12 07:15:00,59.2,46.6,29.85,NE,45,0.8,0.8,63,0.00,,,0.00,,2013-05-12 05:15:00,
2013-05-12 07:20:00,59.9,46.8,29.85,SE,135,0.4,2.2,62,0.00,,,0.00,,2013-05-12 05:20:00,
2013-05-12 07:25:00,60.1,46.9,29.85,NE,45,0.8,1.7,62,0.00,,,0.00,,2013-05-12 05:25:00,
2013-05-12 07:30:00,60.3,46.6,29.85,SE,135,1.3,1.3,61,0.00,,,0.00,,2013-05-12 05:30:00,
2013-05-12 07:35:00,60.6,46.9,29.85,East,90,0.8,0.0,61,0.00,,,0.00,,2013-05-12 05:35:00,
2013-05-12 07:40:00,61.2,46.6,29.85,East,90,1.3,0.0,59,0.00,,,0.00,,2013-05-12 05:40:00,
2013-05-12 07:45:00,61.2,46.6,29.85,East,90,1.3,2.2,59,0.00,,,0.00,,2013-05-12 05:45:00,
2013-05-12 07:50:00,61.5,46.6,29.85,East,90,0.8,0.8,58,0.00,,,0.00,,2013-05-12 05:50:00,
2013-05-12 07:55:00,61.5,46.6,29.85,NE,45,1.3,3.1,58,0.00,,,0.00,,2013-05-12 05:55:00,
2013-05-12 08:00:00,63.1,46.6,29.85,SE,135,1.3,3.1,55,0.00,,,0.00,,2013-05-12 06:00:00,
2013-05-12 08:05:00,63.1,46.6,29.85,SE,135,0.8,0.0,55,0.00,,,0.00,,2013-05-12 06:05:00,
2013-05-12 08:10:00,64.4,47.3,29.85,SE,135,1.3,0.0,54,0.00,,,0.00,,2013-05-12 06:10:00,
2013-05-12 08:15:00,64.4,47.3,29.85,ENE,67,2.2,3.5,54,0.00,,,0.00,,2013-05-12 06:15:00,
2013-05-12 08:20:00,64.2,47.1,29.85,SE,135,1.7,4.0,54,0.00,,,0.00,,2013-05-12 06:20:00,
2013-05-12 08:25:00,64.4,47.3,29.85,East,90,1.3,1.3,54,0.00,,,0.00,,2013-05-12 06:25:00,
2013-05-12 08:30:00,64.8,47.1,29.85,East,90,1.3,2.6,53,0.00,,,0.00,,2013-05-12 06:30:00,
2013-05-12 08:35:00,64.6,45.9,29.85,NE,45,1.3,3.5,51,0.00,,,0.00,,2013-05-12 06:35:00,
2013-05-12 08:40:00,64.9,45.7,29.85,SE,135,3.1,3.1,50,0.00,,,0.00,,2013-05-12 06:40:00,
2013-05-12 08:45:00,66.0,43.9,29.85,East,90,3.1,4.0,45,0.00,,,0.00,,2013-05-12 06:45:00,
2013-05-12 08:50:00,67.8,43.7,29.85,NNE,22,1.3,2.2,42,0.00,,,0.00,,2013-05-12 06:50:00,
2013-05-12 08:55:00,68.7,43.3,29.85,East,90,1.3,1.7,40,0.00,,,0.00,,2013-05-12 06:55:00,
2013-05-12 09:00:00,69.8,43.0,29.85,East,90,1.7,1.7,38,0.00,,,0.00,,2013-05-12 07:00:00,
2013-05-12 09:05:00,69.6,42.8,29.85,East,90,1.7,1.7,38,0.00,,,0.00,,2013-05-12 07:05:00,
2013-05-12 09:10:00,70.0,43.2,29.85,SE,135,3.5,3.5,38,0.00,,,0.00,,2013-05-12 07:10:00,
2013-05-12 09:15:00,69.8,43.7,29.85,SE,135,3.5,3.5,39,0.00,,,0.00,,2013-05-12 07:15:00,
2013-05-12 09:20:00,69.6,43.5,29.85,SE,135,2.2,2.2,39,0.00,,,0.00,,2013-05-12 07:20:00,
2013-05-12 09:25:00,72.0,42.8,29.85,SE,135,1.3,1.7,35,0.00,,,0.00,,2013-05-12 07:25:00,
2013-05-12 09:30:00,72.9,41.9,29.85,NW,315,1.3,1.7,33,0.00,,,0.00,,2013-05-12 07:30:00,
2013-05-12 09:35:00,72.7,41.9,29.85,NW,315,2.2,2.2,33,0.00,,,0.00,,2013-05-12 07:35:00,
2013-05-12 09:40:00,73.0,41.4,29.85,East,90,1.7,3.5,32,0.00,,,0.00,,2013-05-12 07:40:00,
2013-05-12 09:45:00,73.0,41.4,29.85,East,90,2.6,3.5,32,0.00,,,0.00,,2013-05-12 07:45:00,
2013-05-12 09:50:00,73.6,42.6,29.85,SE,135,2.2,2.2,33,0.00,,,0.00,,2013-05-12 07:50:00,
2013-05-12 09:55:00,74.3,42.4,29.85,East,90,3.5,3.5,32,0.00,,,0.00,,2013-05-12 07:55:00,
2013-05-12 10:00:00,75.9,42.1,29.85,East,90,1.3,0.0,30,0.00,,,0.00,,2013-05-12 08:00:00,
2013-05-12 10:05:00,75.4,39.9,29.85,East,90,1.3,0.0,28,0.00,,,0.00,,2013-05-12 08:05:00,
2013-05-12 10:10:00,74.3,40.8,29.85,East,90,1.7,1.7,30,0.00,,,0.00,,2013-05-12 08:10:00,
2013-05-12 10:15:00,72.7,41.9,29.85,NE,45,0.8,0.8,33,0.00,,,0.00,,2013-05-12 08:15:00,
2013-05-12 10:20:00,73.6,42.6,29.85,SE,135,2.2,4.4,33,0.00,,,0.00,,2013-05-12 08:20:00,
2013-05-12 10:25:00,73.9,42.1,29.85,East,90,2.2,3.5,32,0.00,,,0.00,,2013-05-12 08:25:00,
2013-05-12 10:30:00,75.9,40.3,29.85,South,180,1.7,2.2,28,0.00,,,0.00,,2013-05-12 08:30:00,
2013-05-12 10:35:00,75.6,37.2,29.85,NW,315,3.1,4.0,25,0.00,,,0.00,,2013-05-12 08:35:00,
2013-05-12 10:40:00,75.2,38.8,29.85,West,270,0.8,0.0,27,0.00,,,0.00,,2013-05-12 08:40:00,
2013-05-12 10:45:00,74.5,39.2,29.85,NE,45,2.2,3.5,28,0.00,,,0.00,,2013-05-12 08:45:00,
2013-05-12 10:50:00,72.5,39.2,29.85,East,90,2.6,4.9,30,0.00,,,0.00,,2013-05-12 08:50:00,
2013-05-12 10:55:00,74.5,42.6,29.85,NW,315,0.8,0.8,32,0.00,,,0.00,,2013-05-12 08:55:00,
2013-05-12 11:00:00,76.8,39.2,29.85,NW,315,2.2,2.2,26,0.00,,,0.00,,2013-05-12 09:00:00,
2013-05-12 11:05:00,78.3,39.4,29.85,East,90,0.4,2.2,25,0.00,,,0.00,,2013-05-12 09:05:00,
2013-05-12 11:10:00,76.8,37.2,29.85,North,0,2.2,4.4,24,0.00,,,0.00,,2013-05-12 09:10:00,
2013-05-12 11:15:00,77.7,36.9,29.85,West,270,2.2,2.2,23,0.00,,,0.00,,2013-05-12 09:15:00,
2013-05-12 11:20:00,75.6,36.1,29.85,NW,315,0.8,1.7,24,0.00,,,0.00,,2013-05-12 09:20:00,
2013-05-12 11:25:00,76.3,36.7,29.85,South,180,2.2,2.2,24,0.00,,,0.00,,2013-05-12 09:25:00,
2013-05-12 11:30:00,73.6,37.4,29.85,North,0,4.0,4.4,27,0.00,,,0.00,,2013-05-12 09:30:00,
2013-05-12 11:35:00,72.9,37.8,29.85,NE,45,2.2,2.2,28,0.00,,,0.00,,2013-05-12 09:35:00,
2013-05-12 11:40:00,72.9,37.8,29.85,East,90,3.1,7.6,28,0.00,,,0.00,,2013-05-12 09:40:00,
2013-05-12 11:45:00,74.7,40.3,29.85,NE,45,1.3,3.5,29,0.00,,,0.00,,2013-05-12 09:45:00,
2013-05-12 11:50:00,78.4,37.4,29.85,NE,45,1.7,3.5,23,0.00,,,0.00,,2013-05-12 09:50:00,
2013-05-12 11:55:00,80.4,36.9,29.85,NW,315,1.3,4.9,21,0.00,,,0.00,,2013-05-12 09:55:00,
2013-05-12 12:00:00,75.4,34.9,29.85,West,270,2.6,2.6,23,0.00,,,0.00,,2013-05-12 10:00:00,
2013-05-12 12:05:00,74.3,36.1,29.85,NE,45,3.1,5.8,25,0.00,,,0.00,,2013-05-12 10:05:00,
2013-05-12 12:10:00,73.8,37.6,29.85,North,0,3.5,4.4,27,0.00,,,0.00,,2013-05-12 10:10:00,
2013-05-12 12:15:00,77.4,36.5,29.85,North,0,2.6,2.6,23,0.00,,,0.00,,2013-05-12 10:15:00,
2013-05-12 12:20:00,76.6,36.0,29.85,West,270,0.4,4.4,23,0.00,,,0.00,,2013-05-12 10:20:00,
2013-05-12 12:25:00,79.7,35.1,29.85,NNW,337,2.6,2.6,20,0.00,,,0.00,,2013-05-12 10:25:00,
2013-05-12 12:30:00,75.2,35.8,29.85,NW,315,4.4,8.0,24,0.00,,,0.00,,2013-05-12 10:30:00,
2013-05-12 12:35:00,74.1,36.0,29.85,North,0,4.0,6.2,25,0.00,,,0.00,,2013-05-12 10:35:00,
2013-05-12 12:40:00,75.0,38.7,29.85,NE,45,5.8,6.2,27,0.00,,,0.00,,2013-05-12 10:40:00,
2013-05-12 12:45:00,76.3,37.8,29.85,NW,315,2.2,2.6,25,0.00,,,0.00,,2013-05-12 10:45:00,
2013-05-12 12:50:00,78.3,37.4,29.85,NW,315,1.3,3.5,23,0.00,,,0.00,,2013-05-12 10:50:00,
2013-05-12 12:55:00,79.9,35.1,29.85,West,270,3.5,4.0,20,0.00,,,0.00,,2013-05-12 10:55:00,
2013-05-12 13:00:00,78.1,33.6,29.85,North,0,2.2,3.1,20,0.00,,,0.00,,2013-05-12 11:00:00,
2013-05-12 13:05:00,76.5,34.7,29.85,West,270,5.8,5.8,22,0.00,,,0.00,,2013-05-12 11:05:00,
2013-05-12 13:10:00,77.9,36.0,29.85,NW,315,4.4,5.3,22,0.00,,,0.00,,2013-05-12 11:10:00,
2013-05-12 13:15:00,78.3,33.8,29.85,NW,315,4.0,5.8,20,0.00,,,0.00,,2013-05-12 11:15:00,
2013-05-12 13:20:00,76.8,33.8,29.85,NW,315,4.0,9.3,21,0.00,,,0.00,,2013-05-12 11:20:00,
2013-05-12 13:25:00,75.0,41.4,29.85,North,0,6.2,6.2,30,0.00,,,0.00,,2013-05-12 11:25:00,
2013-05-12 13:30:00,73.9,42.1,29.85,North,0,7.1,8.0,32,0.00,,,0.00,,2013-05-12 11:30:00,
2013-05-12 13:35:00,76.3,44.2,29.85,NNW,337,7.1,7.1,32,0.00,,,0.00,,2013-05-12 11:35:00,
2013-05-12 13:40:00,76.3,44.2,29.85,NW,315,5.3,7.6,32,0.00,,,0.00,,2013-05-12 11:40:00,
2013-05-12 13:45:00,77.0,43.2,29.85,NW,315,7.1,8.5,30,0.00,,,0.00,,2013-05-12 11:45:00,
2013-05-12 13:50:00,75.9,45.5,29.85,North,0,8.0,8.0,34,0.00,,,0.00,,2013-05-12 11:50:00,
2013-05-12 13:55:00,74.1,45.3,29.85,NW,315,9.3,11.6,36,0.00,,,0.00,,2013-05-12 11:55:00,
2013-05-12 14:00:00,73.8,45.7,29.85,NW,315,7.1,8.5,37,0.00,,,0.00,,2013-05-12 12:00:00,
2013-05-12 14:05:00,73.8,45.0,29.85,North,0,4.0,5.8,36,0.00,,,0.00,,2013-05-12 12:05:00,
2013-05-12 14:10:00,73.8,45.0,29.85,North,0,6.7,6.7,36,0.00,,,0.00,,2013-05-12 12:10:00,
2013-05-12 14:15:00,73.6,44.1,29.85,North,0,4.9,6.2,35,0.00,,,0.00,,2013-05-12 12:15:00,
2013-05-12 14:20:00,73.8,45.7,29.85,NW,315,5.8,7.6,37,0.00,,,0.00,,2013-05-12 12:20:00,
2013-05-12 14:25:00,75.9,46.9,29.85,NW,315,7.6,10.7,36,0.00,,,0.00,,2013-05-12 12:25:00,
2013-05-12 14:30:00,76.3,45.0,29.82,NW,315,10.2,10.2,33,0.00,,,0.00,,2013-05-12 12:30:00,
2013-05-12 14:35:00,76.8,46.2,29.82,NW,315,8.0,11.6,34,0.00,,,0.00,,2013-05-12 12:35:00,
2013-05-12 14:40:00,75.9,42.1,29.82,NW,315,9.3,12.5,30,0.00,,,0.00,,2013-05-12 12:40:00,
2013-05-12 14:48:00,75.9,42.1,29.82,NW,315,9.3,12.5,30,0.00,,,0.00,,2013-05-12 12:48:00,
2013-05-12 14:58:00,75.9,42.1,29.82,NW,315,9.3,12.5,30,0.00,,,0.00,,2013-05-12 12:58:00,
2013-05-12 15:04:00,75.9,42.1,29.82,NW,315,9.3,12.5,30,0.00,,,0.00,,2013-05-12 13:04:00,
2013-05-12 15:18:00,75.9,42.1,29.82,NW,315,9.3,12.5,30,0.00,,,0.00,,2013-05-12 13:18:00,
2013-05-12 15:27:00,75.9,42.1,29.82,NW,315,9.3,12.5,30,0.00,,,0.00,,2013-05-12 13:27:00,
2013-05-12 15:32:00,75.9,42.1,29.82,NW,315,9.3,12.5,30,0.00,,,0.00,,2013-05-12 13:32:00,
2013-05-12 15:37:00,75.9,42.1,29.82,NW,315,9.3,12.5,30,0.00,,,0.00,,2013-05-12 13:37:00,
2013-05-12 15:42:00,75.9,42.1,29.82,NW,315,9.3,12.5,30,0.00,,,0.00,,2013-05-12 13:42:00,
2013-05-12 15:47:00,75.9,42.1,29.82,NW,315,9.3,12.5,30,0.00,,,0.00,,2013-05-12 13:47:00,
2013-05-12 15:52:00,75.9,42.1,29.82,NW,315,9.3,12.5,30,0.00,,,0.00,,2013-05-12 13:52:00,
2013-05-12 16:48:00,75.9,42.1,29.82,NW,315,9.3,12.5,30,0.00,,,0.00,,2013-05-12 14:48:00,
2013-05-12 16:58:00,75.9,42.1,29.82,NW,315,9.3,12.5,30,0.00,,,0.00,,2013-05-12 14:58:00,
2013-05-12 17:03:00,75.9,42.1,29.82,NW,315,9.3,12.5,30,0.00,,,0.00,,2013-05-12 15:03:00,
2013-05-12 17:08:00,75.9,42.1,29.82,NW,315,9.3,12.5,30,0.00,,,0.00,,2013-05-12 15:08:00,
2013-05-12 17:13:00,75.9,42.1,29.82,NW,315,9.3,12.5,30,0.00,,,0.00,,2013-05-12 15:13:00,
2013-05-12 17:18:00,75.9,42.1,29.82,NW,315,9.3,12.5,30,0.00,,,0.00,,2013-05-12 15:18:00,
2013-05-12 17:23:00,75.9,42.1,29.82,NW,315,9.3,12.5,30,0.00,,,0.00,,2013-05-12 15:23:00,
2013-05-12 17:28:00,75.9,42.1,29.82,NW,315,9.3,12.5,30,0.00,,,0.00,,2013-05-12 15:28:00,
2013-05-12 17:33:00,75.9,42.1,29.82,NW,315,9.3,12.5,30,0.00,,,0.00,,2013-05-12 15:33:00,
2013-05-12 17:38:00,75.9,42.1,29.82,NW,315,9.3,12.5,30,0.00,,,0.00,,2013-05-12 15:38:00,
2013-05-12 17:43:00,75.9,42.1,29.82,NW,315,9.3,12.5,30,0.00,,,0.00,,2013-05-12 15:43:00,
2013-05-12 17:48:00,75.9,42.1,29.82,NW,315,9.3,12.5,30,0.00,,,0.00,,2013-05-12 15:48:00,
2013-05-12 17:53:00,75.9,42.1,29.82,NW,315,9.3,12.5,30,0.00,,,0.00,,2013-05-12 15:53:00,
2013-05-12 17:58:00,75.9,42.1,29.82,NW,315,9.3,12.5,30,0.00,,,0.00,,2013-05-12 15:58:00,
2013-05-12 18:03:00,75.9,42.1,29.82,NW,315,9.3,12.5,30,0.00,,,0.00,,2013-05-12 16:03:00,
2013-05-12 18:08:00,75.9,42.1,29.82,NW,315,9.3,12.5,30,0.00,,,0.00,,2013-05-12 16:08:00,
2013-05-12 18:13:00,75.9,42.1,29.82,NW,315,9.3,12.5,30,0.00,,,0.00,,2013-05-12 16:13:00,
2013-05-12 18:18:00,75.9,42.1,29.82,NW,315,9.3,12.5,30,0.00,,,0.00,,2013-05-12 16:18:00,
2013-05-12 18:23:00,75.9,42.1,29.82,NW,315,9.3,12.5,30,0.00,,,0.00,,2013-05-12 16:23:00,
2013-05-12 18:28:00,75.9,42.1,29.82,NW,315,9.3,12.5,30,0.00,,,0.00,,2013-05-12 16:28:00,
2013-05-12 18:33:00,75.9,42.1,29.82,NW,315,9.3,12.5,30,0.00,,,0.00,,2013-05-12 16:33:00,
2013-05-12 18:38:00,75.9,42.1,29.82,NW,315,9.3,12.5,30,0.00,,,0.00,,2013-05-12 16:38:00,
2013-05-12 18:43:00,75.9,42.1,29.82,NW,315,9.3,12.5,30,0.00,,,0.00,,2013-05-12 16:43:00,
2013-05-12 18:48:00,75.9,42.1,29.82,NW,315,9.3,12.5,30,0.00,,,0.00,,2013-05-12 16:48:00,
2013-05-12 18:53:00,75.9,42.1,29.82,NW,315,9.3,12.5,30,0.00,,,0.00,,2013-05-12 16:53:00,
2013-05-12 18:58:00,75.9,42.1,29.82,NW,315,9.3,12.5,30,0.00,,,0.00,,2013-05-12 16:58:00,
2013-05-12 19:03:00,75.9,42.1,29.82,NW,315,9.3,12.5,30,0.00,,,0.00,,2013-05-12 17:03:00,
2013-05-12 19:08:00,75.9,42.1,29.82,NW,315,9.3,12.5,30,0.00,,,0.00,,2013-05-12 17:08:00,
2013-05-12 19:13:00,75.9,42.1,29.82,NW,315,9.3,12.5,30,0.00,,,0.00,,2013-05-12 17:13:00,
2013-05-12 19:18:00,75.9,42.1,29.82,NW,315,9.3,12.5,30,0.00,,,0.00,,2013-05-12 17:18:00,
2013-05-12 19:23:00,75.9,42.1,29.82,NW,315,9.3,12.5,30,0.00,,,0.00,,2013-05-12 17:23:00,
2013-05-12 19:28:00,75.9,42.1,29.82,NW,315,9.3,12.5,30,0.00,,,0.00,,2013-05-12 17:28:00,
2013-05-12 19:38:00,75.9,42.1,29.82,NW,315,9.3,12.5,30,0.00,,,0.00,,2013-05-12 17:38:00,
2013-05-12 19:43:00,75.9,42.1,29.82,NW,315,9.3,12.5,30,0.00,,,0.00,,2013-05-12 17:43:00,
2013-05-12 19:48:00,75.9,42.1,29.82,NW,315,9.3,12.5,30,0.00,,,0.00,,2013-05-12 17:48:00,
2013-05-12 19:53:00,75.9,42.1,29.82,NW,315,9.3,12.5,30,0.00,,,0.00,,2013-05-12 17:53:00,
2013-05-12 19:58:00,75.9,42.1,29.82,NW,315,9.3,12.5,30,0.00,,,0.00,,2013-05-12 17:58:00,
2013-05-12 20:03:00,75.9,42.1,29.82,NW,315,9.3,12.5,30,0.00,,,0.00,,2013-05-12 18:03:00,
2013-05-12 20:08:00,75.9,42.1,29.82,NW,315,9.3,12.5,30,0.00,,,0.00,,2013-05-12 18:08:00,
2013-05-12 20:13:00,75.9,42.1,29.82,NW,315,9.3,12.5,30,0.00,,,0.00,,2013-05-12 18:13:00,
2013-05-12 20:18:00,75.9,42.1,29.82,NW,315,9.3,12.5,30,0.00,,,0.00,,2013-05-12 18:18:00,
2013-05-12 20:23:00,75.9,42.1,29.82,NW,315,9.3,12.5,30,0.00,,,0.00,,2013-05-12 18:23:00,
2013-05-12 20:28:00,75.9,42.1,29.82,NW,315,9.3,12.5,30,0.00,,,0.00,,2013-05-12 18:28:00,
2013-05-12 20:33:00,75.9,42.1,29.82,NW,315,9.3,12.5,30,0.00,,,0.00,,2013-05-12 18:33:00,
2013-05-12 20:38:00,75.9,42.1,29.82,NW,315,9.3,12.5,30,0.00,,,0.00,,2013-05-12 18:38:00,
2013-05-12 20:43:00,75.9,42.1,29.82,NW,315,9.3,12.5,30,0.00,,,0.00,,2013-05-12 18:43:00,
2013-05-12 20:48:00,75.9,42.1,29.82,NW,315,9.3,12.5,30,0.00,,,0.00,,2013-05-12 18:48:00,
2013-05-12 20:53:00,75.9,42.1,29.82,NW,315,9.3,12.5,30,0.00,,,0.00,,2013-05-12 18:53:00,
2013-05-12 20:58:00,75.9,42.1,29.82,NW,315,9.3,12.5,30,0.00,,,0.00,,2013-05-12 18:58:00,
2013-05-12 21:03:00,75.9,42.1,29.82,NW,315,9.3,12.5,30,0.00,,,0.00,,2013-05-12 19:03:00,
2013-05-12 21:08:00,75.9,42.1,29.82,NW,315,9.3,12.5,30,0.00,,,0.00,,2013-05-12 19:08:00,
2013-05-12 21:13:00,75.9,42.1,29.82,NW,315,9.3,12.5,30,0.00,,,0.00,,2013-05-12 19:13:00,
2013-05-12 21:18:00,75.9,42.1,29.82,NW,315,9.3,12.5,30,0.00,,,0.00,,2013-05-12 19:18:00,
2013-05-12 21:23:00,75.9,42.1,29.82,NW,315,9.3,12.5,30,0.00,,,0.00,,2013-05-12 19:23:00,
2013-05-12 21:28:00,75.9,42.1,29.82,NW,315,9.3,12.5,30,0.00,,,0.00,,2013-05-12 19:28:00,
2013-05-12 21:33:00,75.9,42.1,29.82,NW,315,9.3,12.5,30,0.00,,,0.00,,2013-05-12 19:33:00,
2013-05-12 21:38:00,75.9,42.1,29.82,NW,315,9.3,12.5,30,0.00,,,0.00,,2013-05-12 19:38:00,
2013-05-12 21:43:00,75.9,42.1,29.82,NW,315,9.3,12.5,30,0.00,,,0.00,,2013-05-12 19:43:00,
2013-05-12 21:48:00,75.9,42.1,29.82,NW,315,9.3,12.5,30,0.00,,,0.00,,2013-05-12 19:48:00,
2013-05-12 21:53:00,75.9,42.1,29.82,NW,315,9.3,12.5,30,0.00,,,0.00,,2013-05-12 19:53:00,
2013-05-12 22:03:00,75.9,42.1,29.82,NW,315,9.3,12.5,30,0.00,,,0.00,,2013-05-12 20:03:00,
2013-05-12 22:08:00,75.9,42.1,29.82,NW,315,9.3,12.5,30,0.00,,,0.00,,2013-05-12 20:08:00,
2013-05-12 22:13:00,75.9,42.1,29.82,NW,315,9.3,12.5,30,0.00,,,0.00,,2013-05-12 20:13:00,
2013-05-12 22:18:00,75.9,42.1,29.82,NW,315,9.3,12.5,30,0.00,,,0.00,,2013-05-12 20:18:00,
2013-05-12 22:23:00,75.9,42.1,29.82,NW,315,9.3,12.5,30,0.00,,,0.00,,2013-05-12 20:23:00,
2013-05-12 22:28:00,75.9,42.1,29.82,NW,315,9.3,12.5,30,0.00,,,0.00,,2013-05-12 20:28:00,
2013-05-12 22:33:00,75.9,42.1,29.82,NW,315,9.3,12.5,30,0.00,,,0.00,,2013-05-12 20:33:00,
2013-05-12 22:38:00,75.9,42.1,29.82,NW,315,9.3,12.5,30,0.00,,,0.00,,2013-05-12 20:38:00,
2013-05-12 22:43:00,75.9,42.1,29.82,NW,315,9.3,12.5,30,0.00,,,0.00,,2013-05-12 20:43:00,
2013-05-12 22:48:00,75.9,42.1,29.82,NW,315,9.3,12.5,30,0.00,,,0.00,,2013-05-12 20:48:00,
2013-05-12 22:53:00,75.9,42.1,29.82,NW,315,9.3,12.5,30,0.00,,,0.00,,2013-05-12 20:53:00,
2013-05-12 22:58:00,75.9,42.1,29.82,NW,315,9.3,12.5,30,0.00,,,0.00,,2013-05-12 20:58:00,
2013-05-12 23:03:00,75.9,42.1,29.82,NW,315,9.3,12.5,30,0.00,,,0.00,,2013-05-12 21:03:00,
2013-05-12 23:08:00,75.9,42.1,29.82,NW,315,9.3,12.5,30,0.00,,,0.00,,2013-05-12 21:08:00,
2013-05-12 23:13:00,75.9,42.1,29.82,NW,315,9.3,12.5,30,0.00,,,0.00,,2013-05-12 21:13:00,
2013-05-12 23:18:00,75.9,42.1,29.82,NW,315,9.3,12.5,30,0.00,,,0.00,,2013-05-12 21:18:00,
2013-05-12 23:23:00,75.9,42.1,29.82,NW,315,9.3,12.5,30,0.00,,,0.00,,2013-05-12 21:23:00,
2013-05-12 23:28:00,75.9,42.1,29.82,NW,315,9.3,12.5,30,0.00,,,0.00,,2013-05-12 21:28:00,
2013-05-12 23:33:00,75.9,42.1,29.82,NW,315,9.3,12.5,30,0.00,,,0.00,,2013-05-12 21:33:00,
2013-05-12 23:38:00,75.9,42.1,29.82,NW,315,9.3,12.5,30,0.00,,,0.00,,2013-05-12 21:38:00,
2013-05-12 23:43:00,75.9,42.1,29.82,NW,315,9.3,12.5,30,0.00,,,0.00,,2013-05-12 21:43:00,
2013-05-12 23:48:00,75.9,42.1,29.82,NW,315,9.3,12.5,30,0.00,,,0.00,,2013-05-12 21:48:00,
2013-05-12 23:53:00,75.9,42.1,29.82,NW,315,9.3,12.5,30,0.00,,,0.00,,2013-05-12 21:53:00,
2013-05-12 23:58:00,75.9,42.1,29.82,NW,315,9.3,12.5,30,0.00,,,0.00,,2013-05-12 21:58:00,